SKLT/LET METAR and TAF weather

Enter ICAO airport designator
Station Type Date Time Source
SKLT METAR 2021/03/02 13:00 UTC NOAA

SKLT 021300Z VRB02KT 9999 FEW005 SCT010 BKN080 25/24 Q1010 RMK A2984


Station Type Date Time Source
SKLT Decoded METAR 2021/03/02 13:00 UTC NOAA

Leticia / Vasquez Cobo, Colombia (SKLT) 04-10S 069-57W 84M
Mar 02, 2021 - 08:00 AM EST / 2021.03.02 1300 UTC
Wind: Variable at 2 MPH (2 KT):0
Visibility: greater than 7 mile(s):0
Sky conditions: mostly cloudy
Temperature: 77 F (25 C)
Dew Point: 75 F (24 C)
Relative Humidity: 94%
Pressure (altimeter): 29.83 in. Hg (1010 hPa)
ob: SKLT 021300Z VRB02KT 9999 FEW005 SCT010 BKN080 25/24 Q1010 RMK A2984
cycle: 13

Station Type Date Time Source
SKLT TAF 2021/03/02 12:55 UTC NOAA

TAF SKLT 021030Z 0212/0312 00000KT 9999 FEW020 SCT090
BECMG 0215/0217 08006KT SCT017 BKN090
TEMPO 0221/0223 7000 RADZ BKN010TCU
BECMG 0223/0301 VRB02KT TX30/0218Z TN23/0310Z

Example: see airport list